sensor_id;sensor_type;location;lat;lon;timestamp;P1;durP1;ratioP1;P2;durP2;ratioP2
38787;SDS011;24536;45.488;12.238;2022-12-18T00:01:59;5.32;;;3.70;;
38787;SDS011;24536;45.488;12.238;2022-12-18T00:04:25;5.68;;;3.60;;
38787;SDS011;24536;45.488;12.238;2022-12-18T00:06:52;4.53;;;3.58;;
38787;SDS011;24536;45.488;12.238;2022-12-18T00:09:18;6.32;;;4.78;;
38787;SDS011;24536;45.488;12.238;2022-12-18T00:11:44;5.60;;;3.63;;
38787;SDS011;24536;45.488;12.238;2022-12-18T00:14:11;6.68;;;4.10;;
38787;SDS011;24536;45.488;12.238;2022-12-18T00:16:37;4.63;;;3.50;;
38787;SDS011;24536;45.488;12.238;2022-12-18T00:19:03;6.20;;;3.70;;
38787;SDS011;24536;45.488;12.238;2022-12-18T00:21:31;4.32;;;3.40;;
38787;SDS011;24536;45.488;12.238;2022-12-18T00:23:58;6.13;;;3.78;;
38787;SDS011;24536;45.488;12.238;2022-12-18T00:26:25;4.75;;;3.58;;
38787;SDS011;24536;45.488;12.238;2022-12-18T00:28:53;6.22;;;3.85;;
38787;SDS011;24536;45.488;12.238;2022-12-18T00:31:21;5.68;;;4.05;;
38787;SDS011;24536;45.488;12.238;2022-12-18T00:33:49;5.00;;;3.63;;
38787;SDS011;24536;45.488;12.238;2022-12-18T00:38:42;4.07;;;3.33;;
38787;SDS011;24536;45.488;12.238;2022-12-18T00:41:09;4.45;;;3.70;;
38787;SDS011;24536;45.488;12.238;2022-12-18T00:43:36;6.13;;;3.70;;
38787;SDS011;24536;45.488;12.238;2022-12-18T00:46:03;5.50;;;3.88;;
38787;SDS011;24536;45.488;12.238;2022-12-18T00:48:29;5.03;;;3.58;;
38787;SDS011;24536;45.488;12.238;2022-12-18T00:50:55;4.45;;;3.35;;
38787;SDS011;24536;45.488;12.238;2022-12-18T00:53:20;3.88;;;3.15;;
38787;SDS011;24536;45.488;12.238;2022-12-18T00:55:46;4.70;;;3.67;;
38787;SDS011;24536;45.488;12.238;2022-12-18T00:58:13;5.18;;;3.42;;
38787;SDS011;24536;45.488;12.238;2022-12-18T01:00:40;5.20;;;3.83;;
38787;SDS011;24536;45.488;12.238;2022-12-18T01:03:06;4.10;;;3.20;;
38787;SDS011;24536;45.488;12.238;2022-12-18T01:05:32;5.22;;;3.90;;
38787;SDS011;24536;45.488;12.238;2022-12-18T01:07:58;5.05;;;3.70;;
38787;SDS011;24536;45.488;12.238;2022-12-18T01:10:24;4.53;;;3.60;;
38787;SDS011;24536;45.488;12.238;2022-12-18T01:12:51;4.80;;;3.42;;
38787;SDS011;24536;45.488;12.238;2022-12-18T01:15:17;4.10;;;3.10;;
38787;SDS011;24536;45.488;12.238;2022-12-18T01:17:43;4.65;;;3.10;;
38787;SDS011;24536;45.488;12.238;2022-12-18T01:20:10;3.95;;;3.10;;
38787;SDS011;24536;45.488;12.238;2022-12-18T01:22:37;5.00;;;3.92;;
38787;SDS011;24536;45.488;12.238;2022-12-18T01:25:03;5.00;;;3.45;;
38787;SDS011;24536;45.488;12.238;2022-12-18T01:27:30;11.30;;;3.75;;
38787;SDS011;24536;45.488;12.238;2022-12-18T01:29:55;5.35;;;4.13;;
38787;SDS011;24536;45.488;12.238;2022-12-18T01:32:21;4.45;;;3.60;;
38787;SDS011;24536;45.488;12.238;2022-12-18T01:34:47;3.90;;;2.85;;
38787;SDS011;24536;45.488;12.238;2022-12-18T01:37:13;4.07;;;3.40;;
38787;SDS011;24536;45.488;12.238;2022-12-18T01:39:38;4.50;;;3.20;;
38787;SDS011;24536;45.488;12.238;2022-12-18T01:42:09;4.32;;;3.42;;
38787;SDS011;24536;45.488;12.238;2022-12-18T01:52:36;13.02;;;3.85;;
38787;SDS011;24536;45.488;12.238;2022-12-18T01:55:03;5.00;;;3.42;;
38787;SDS011;24536;45.488;12.238;2022-12-18T01:57:30;4.32;;;3.13;;
38787;SDS011;24536;45.488;12.238;2022-12-18T01:59:57;4.50;;;3.28;;
38787;SDS011;24536;45.488;12.238;2022-12-18T02:02:26;4.55;;;3.22;;
38787;SDS011;24536;45.488;12.238;2022-12-18T02:04:54;4.68;;;3.30;;
38787;SDS011;24536;45.488;12.238;2022-12-18T02:07:24;5.45;;;3.53;;
38787;SDS011;24536;45.488;12.238;2022-12-18T02:15:54;4.93;;;3.25;;
38787;SDS011;24536;45.488;12.238;2022-12-18T02:18:38;3.60;;;2.83;;
38787;SDS011;24536;45.488;12.238;2022-12-18T02:26:34;3.92;;;3.08;;
38787;SDS011;24536;45.488;12.238;2022-12-18T02:29:11;4.30;;;3.17;;
38787;SDS011;24536;45.488;12.238;2022-12-18T02:31:43;4.82;;;3.17;;
38787;SDS011;24536;45.488;12.238;2022-12-18T02:34:14;5.40;;;3.63;;
38787;SDS011;24536;45.488;12.238;2022-12-18T02:36:42;4.20;;;3.00;;
38787;SDS011;24536;45.488;12.238;2022-12-18T02:39:10;4.90;;;3.97;;
38787;SDS011;24536;45.488;12.238;2022-12-18T02:41:38;4.78;;;3.53;;
38787;SDS011;24536;45.488;12.238;2022-12-18T02:44:08;4.85;;;3.67;;
38787;SDS011;24536;45.488;12.238;2022-12-18T02:51:42;6.45;;;3.58;;
38787;SDS011;24536;45.488;12.238;2022-12-18T02:54:11;5.00;;;3.30;;
38787;SDS011;24536;45.488;12.238;2022-12-18T02:56:51;4.18;;;2.88;;
38787;SDS011;24536;45.488;12.238;2022-12-18T03:02:29;4.97;;;3.40;;
38787;SDS011;24536;45.488;12.238;2022-12-18T03:05:24;4.22;;;3.38;;
38787;SDS011;24536;45.488;12.238;2022-12-18T03:07:59;4.20;;;2.97;;
38787;SDS011;24536;45.488;12.238;2022-12-18T03:10:32;3.95;;;3.08;;
38787;SDS011;24536;45.488;12.238;2022-12-18T03:13:04;5.25;;;3.05;;
38787;SDS011;24536;45.488;12.238;2022-12-18T03:15:55;4.75;;;3.05;;
38787;SDS011;24536;45.488;12.238;2022-12-18T03:18:23;5.90;;;4.05;;
38787;SDS011;24536;45.488;12.238;2022-12-18T03:20:54;4.53;;;3.13;;
38787;SDS011;24536;45.488;12.238;2022-12-18T03:23:24;4.33;;;3.37;;
38787;SDS011;24536;45.488;12.238;2022-12-18T03:28:22;5.93;;;3.75;;
38787;SDS011;24536;45.488;12.238;2022-12-18T03:30:53;5.05;;;3.97;;
38787;SDS011;24536;45.488;12.238;2022-12-18T03:36:12;5.72;;;3.97;;
38787;SDS011;24536;45.488;12.238;2022-12-18T03:38:38;4.25;;;3.22;;
38787;SDS011;24536;45.488;12.238;2022-12-18T03:41:13;4.95;;;3.70;;
38787;SDS011;24536;45.488;12.238;2022-12-18T03:44:11;4.00;;;3.08;;
38787;SDS011;24536;45.488;12.238;2022-12-18T03:49:36;4.57;;;3.35;;
38787;SDS011;24536;45.488;12.238;2022-12-18T03:55:00;5.43;;;3.67;;
38787;SDS011;24536;45.488;12.238;2022-12-18T03:57:28;5.90;;;4.00;;
38787;SDS011;24536;45.488;12.238;2022-12-18T03:59:57;4.20;;;3.45;;
38787;SDS011;24536;45.488;12.238;2022-12-18T04:02:26;4.93;;;3.65;;
38787;SDS011;24536;45.488;12.238;2022-12-18T04:04:55;4.47;;;3.15;;
38787;SDS011;24536;45.488;12.238;2022-12-18T04:07:24;6.05;;;4.18;;
38787;SDS011;24536;45.488;12.238;2022-12-18T04:09:50;6.00;;;3.65;;
38787;SDS011;24536;45.488;12.238;2022-12-18T04:14:46;4.78;;;3.63;;
38787;SDS011;24536;45.488;12.238;2022-12-18T04:17:11;4.53;;;3.20;;
38787;SDS011;24536;45.488;12.238;2022-12-18T04:19:37;4.85;;;3.15;;
38787;SDS011;24536;45.488;12.238;2022-12-18T04:22:03;4.95;;;3.83;;
38787;SDS011;24536;45.488;12.238;2022-12-18T04:24:28;4.82;;;3.33;;
38787;SDS011;24536;45.488;12.238;2022-12-18T04:26:54;4.72;;;3.50;;
38787;SDS011;24536;45.488;12.238;2022-12-18T04:29:20;4.45;;;3.35;;
38787;SDS011;24536;45.488;12.238;2022-12-18T04:31:45;6.65;;;4.13;;
38787;SDS011;24536;45.488;12.238;2022-12-18T04:34:11;5.82;;;4.00;;
38787;SDS011;24536;45.488;12.238;2022-12-18T04:36:37;4.63;;;3.55;;
38787;SDS011;24536;45.488;12.238;2022-12-18T04:39:02;8.15;;;3.53;;
38787;SDS011;24536;45.488;12.238;2022-12-18T04:41:28;6.35;;;3.72;;
38787;SDS011;24536;45.488;12.238;2022-12-18T04:43:53;6.55;;;3.90;;
38787;SDS011;24536;45.488;12.238;2022-12-18T04:46:19;5.45;;;3.63;;
38787;SDS011;24536;45.488;12.238;2022-12-18T04:48:45;7.18;;;4.63;;
38787;SDS011;24536;45.488;12.238;2022-12-18T04:51:11;5.75;;;4.07;;
38787;SDS011;24536;45.488;12.238;2022-12-18T04:53:37;6.03;;;4.00;;
38787;SDS011;24536;45.488;12.238;2022-12-18T04:56:07;5.60;;;3.90;;
38787;SDS011;24536;45.488;12.238;2022-12-18T04:58:36;5.90;;;4.05;;
38787;SDS011;24536;45.488;12.238;2022-12-18T05:01:02;5.22;;;3.97;;
38787;SDS011;24536;45.488;12.238;2022-12-18T05:03:28;6.05;;;4.10;;
38787;SDS011;24536;45.488;12.238;2022-12-18T05:05:54;5.82;;;4.22;;
38787;SDS011;24536;45.488;12.238;2022-12-18T05:08:20;5.50;;;3.88;;
38787;SDS011;24536;45.488;12.238;2022-12-18T05:10:46;6.30;;;4.40;;
38787;SDS011;24536;45.488;12.238;2022-12-18T05:13:12;6.57;;;4.07;;
38787;SDS011;24536;45.488;12.238;2022-12-18T05:15:37;5.63;;;3.72;;
38787;SDS011;24536;45.488;12.238;2022-12-18T05:18:03;5.82;;;4.00;;
38787;SDS011;24536;45.488;12.238;2022-12-18T05:20:29;5.22;;;4.05;;
38787;SDS011;24536;45.488;12.238;2022-12-18T05:22:56;6.82;;;4.55;;
38787;SDS011;24536;45.488;12.238;2022-12-18T05:25:22;5.30;;;4.30;;
38787;SDS011;24536;45.488;12.238;2022-12-18T05:27:48;6.13;;;4.25;;
38787;SDS011;24536;45.488;12.238;2022-12-18T05:30:15;6.80;;;4.10;;
38787;SDS011;24536;45.488;12.238;2022-12-18T05:32:41;6.85;;;4.75;;
38787;SDS011;24536;45.488;12.238;2022-12-18T05:35:07;5.95;;;4.15;;
38787;SDS011;24536;45.488;12.238;2022-12-18T05:37:34;7.28;;;4.53;;
38787;SDS011;24536;45.488;12.238;2022-12-18T05:40:00;7.05;;;4.53;;
38787;SDS011;24536;45.488;12.238;2022-12-18T05:42:27;7.28;;;4.75;;
38787;SDS011;24536;45.488;12.238;2022-12-18T05:44:52;6.30;;;4.35;;
38787;SDS011;24536;45.488;12.238;2022-12-18T05:47:18;6.63;;;4.90;;
38787;SDS011;24536;45.488;12.238;2022-12-18T05:49:44;7.80;;;4.90;;
38787;SDS011;24536;45.488;12.238;2022-12-18T05:52:10;6.65;;;4.63;;
38787;SDS011;24536;45.488;12.238;2022-12-18T05:54:35;5.85;;;4.30;;
38787;SDS011;24536;45.488;12.238;2022-12-18T05:57:01;5.82;;;4.10;;
38787;SDS011;24536;45.488;12.238;2022-12-18T05:59:27;6.63;;;4.68;;
38787;SDS011;24536;45.488;12.238;2022-12-18T06:01:53;7.22;;;5.03;;
38787;SDS011;24536;45.488;12.238;2022-12-18T06:04:18;7.30;;;4.63;;
38787;SDS011;24536;45.488;12.238;2022-12-18T06:06:44;7.25;;;4.65;;
38787;SDS011;24536;45.488;12.238;2022-12-18T06:09:10;5.93;;;4.47;;
38787;SDS011;24536;45.488;12.238;2022-12-18T06:11:37;7.78;;;4.75;;
38787;SDS011;24536;45.488;12.238;2022-12-18T06:14:03;8.63;;;5.28;;
38787;SDS011;24536;45.488;12.238;2022-12-18T06:16:31;7.97;;;4.85;;
38787;SDS011;24536;45.488;12.238;2022-12-18T06:18:59;6.38;;;4.35;;
38787;SDS011;24536;45.488;12.238;2022-12-18T06:21:26;5.82;;;4.20;;
38787;SDS011;24536;45.488;12.238;2022-12-18T06:23:52;6.63;;;4.40;;
38787;SDS011;24536;45.488;12.238;2022-12-18T06:26:18;7.32;;;5.07;;
38787;SDS011;24536;45.488;12.238;2022-12-18T06:28:44;7.03;;;4.55;;
38787;SDS011;24536;45.488;12.238;2022-12-18T06:31:10;6.63;;;4.40;;
38787;SDS011;24536;45.488;12.238;2022-12-18T06:33:37;6.97;;;4.50;;
38787;SDS011;24536;45.488;12.238;2022-12-18T06:36:08;8.18;;;5.13;;
38787;SDS011;24536;45.488;12.238;2022-12-18T06:38:36;9.32;;;5.30;;
38787;SDS011;24536;45.488;12.238;2022-12-18T06:41:21;6.80;;;4.80;;
38787;SDS011;24536;45.488;12.238;2022-12-18T06:43:47;10.20;;;6.10;;
38787;SDS011;24536;45.488;12.238;2022-12-18T06:46:13;6.18;;;4.57;;
38787;SDS011;24536;45.488;12.238;2022-12-18T06:48:38;6.80;;;4.60;;
38787;SDS011;24536;45.488;12.238;2022-12-18T06:51:04;6.95;;;4.72;;
38787;SDS011;24536;45.488;12.238;2022-12-18T06:53:31;7.93;;;4.75;;
38787;SDS011;24536;45.488;12.238;2022-12-18T06:56:03;9.23;;;4.75;;
38787;SDS011;24536;45.488;12.238;2022-12-18T06:58:32;6.50;;;4.68;;
38787;SDS011;24536;45.488;12.238;2022-12-18T07:01:05;7.05;;;4.93;;
38787;SDS011;24536;45.488;12.238;2022-12-18T07:03:32;9.80;;;5.07;;
38787;SDS011;24536;45.488;12.238;2022-12-18T07:05:58;7.38;;;5.45;;
38787;SDS011;24536;45.488;12.238;2022-12-18T07:08:24;8.55;;;5.65;;
38787;SDS011;24536;45.488;12.238;2022-12-18T07:10:50;6.70;;;4.95;;
38787;SDS011;24536;45.488;12.238;2022-12-18T07:13:16;7.43;;;5.78;;
38787;SDS011;24536;45.488;12.238;2022-12-18T07:15:42;7.15;;;4.70;;
38787;SDS011;24536;45.488;12.238;2022-12-18T07:18:08;8.13;;;5.03;;
38787;SDS011;24536;45.488;12.238;2022-12-18T07:20:34;8.05;;;5.03;;
38787;SDS011;24536;45.488;12.238;2022-12-18T07:23:02;6.68;;;4.78;;
38787;SDS011;24536;45.488;12.238;2022-12-18T07:25:28;7.90;;;5.35;;
38787;SDS011;24536;45.488;12.238;2022-12-18T07:27:54;8.48;;;5.38;;
38787;SDS011;24536;45.488;12.238;2022-12-18T07:30:20;6.68;;;4.95;;
38787;SDS011;24536;45.488;12.238;2022-12-18T07:32:45;8.48;;;4.82;;
38787;SDS011;24536;45.488;12.238;2022-12-18T07:35:12;7.70;;;5.10;;
38787;SDS011;24536;45.488;12.238;2022-12-18T07:37:37;8.38;;;5.50;;
38787;SDS011;24536;45.488;12.238;2022-12-18T07:40:03;9.15;;;4.85;;
38787;SDS011;24536;45.488;12.238;2022-12-18T07:42:29;7.43;;;5.22;;
38787;SDS011;24536;45.488;12.238;2022-12-18T07:44:58;6.80;;;5.05;;
38787;SDS011;24536;45.488;12.238;2022-12-18T07:47:25;8.57;;;5.03;;
38787;SDS011;24536;45.488;12.238;2022-12-18T07:49:51;7.85;;;4.82;;
38787;SDS011;24536;45.488;12.238;2022-12-18T07:52:17;8.52;;;5.10;;
38787;SDS011;24536;45.488;12.238;2022-12-18T07:54:43;6.43;;;4.70;;
38787;SDS011;24536;45.488;12.238;2022-12-18T07:57:08;9.75;;;6.40;;
38787;SDS011;24536;45.488;12.238;2022-12-18T07:59:34;6.97;;;4.57;;
38787;SDS011;24536;45.488;12.238;2022-12-18T08:02:00;6.38;;;4.68;;
38787;SDS011;24536;45.488;12.238;2022-12-18T08:04:26;7.80;;;5.40;;
38787;SDS011;24536;45.488;12.238;2022-12-18T08:06:52;6.80;;;5.05;;
38787;SDS011;24536;45.488;12.238;2022-12-18T08:09:18;7.53;;;5.20;;
38787;SDS011;24536;45.488;12.238;2022-12-18T08:11:44;9.10;;;6.03;;
38787;SDS011;24536;45.488;12.238;2022-12-18T08:14:10;8.63;;;5.53;;
38787;SDS011;24536;45.488;12.238;2022-12-18T08:16:36;6.57;;;4.90;;
38787;SDS011;24536;45.488;12.238;2022-12-18T08:19:01;8.23;;;6.05;;
38787;SDS011;24536;45.488;12.238;2022-12-18T08:21:28;7.35;;;5.68;;
38787;SDS011;24536;45.488;12.238;2022-12-18T08:23:56;9.38;;;5.78;;
38787;SDS011;24536;45.488;12.238;2022-12-18T08:26:24;8.60;;;5.65;;
38787;SDS011;24536;45.488;12.238;2022-12-18T08:28:53;7.93;;;5.38;;
38787;SDS011;24536;45.488;12.238;2022-12-18T08:31:20;8.52;;;6.43;;
38787;SDS011;24536;45.488;12.238;2022-12-18T08:33:47;7.63;;;5.70;;
38787;SDS011;24536;45.488;12.238;2022-12-18T08:36:14;7.20;;;5.03;;
38787;SDS011;24536;45.488;12.238;2022-12-18T08:38:40;9.82;;;5.35;;
38787;SDS011;24536;45.488;12.238;2022-12-18T08:41:06;8.50;;;5.63;;
38787;SDS011;24536;45.488;12.238;2022-12-18T08:43:34;7.03;;;5.32;;
38787;SDS011;24536;45.488;12.238;2022-12-18T08:46:19;7.53;;;5.25;;
38787;SDS011;24536;45.488;12.238;2022-12-18T08:48:46;7.97;;;5.85;;
38787;SDS011;24536;45.488;12.238;2022-12-18T08:51:15;7.97;;;6.05;;
38787;SDS011;24536;45.488;12.238;2022-12-18T08:53:42;8.48;;;5.68;;
38787;SDS011;24536;45.488;12.238;2022-12-18T08:56:09;9.10;;;5.55;;
38787;SDS011;24536;45.488;12.238;2022-12-18T08:58:35;10.07;;;6.03;;
38787;SDS011;24536;45.488;12.238;2022-12-18T09:01:01;9.40;;;5.93;;
38787;SDS011;24536;45.488;12.238;2022-12-18T09:03:28;7.03;;;5.10;;
38787;SDS011;24536;45.488;12.238;2022-12-18T09:05:53;7.65;;;5.38;;
38787;SDS011;24536;45.488;12.238;2022-12-18T09:08:19;9.55;;;6.28;;
38787;SDS011;24536;45.488;12.238;2022-12-18T09:10:45;7.80;;;5.38;;
38787;SDS011;24536;45.488;12.238;2022-12-18T09:13:12;10.25;;;6.28;;
38787;SDS011;24536;45.488;12.238;2022-12-18T09:15:46;8.18;;;5.32;;
38787;SDS011;24536;45.488;12.238;2022-12-18T09:18:14;7.47;;;5.47;;
38787;SDS011;24536;45.488;12.238;2022-12-18T09:20:41;8.55;;;5.63;;
38787;SDS011;24536;45.488;12.238;2022-12-18T09:23:07;7.85;;;6.05;;
38787;SDS011;24536;45.488;12.238;2022-12-18T09:25:34;10.75;;;5.90;;
38787;SDS011;24536;45.488;12.238;2022-12-18T09:28:05;7.70;;;5.45;;
38787;SDS011;24536;45.488;12.238;2022-12-18T09:30:38;7.65;;;5.22;;
38787;SDS011;24536;45.488;12.238;2022-12-18T09:33:05;9.45;;;5.57;;
38787;SDS011;24536;45.488;12.238;2022-12-18T09:35:31;8.60;;;5.97;;
38787;SDS011;24536;45.488;12.238;2022-12-18T09:37:56;7.57;;;5.07;;
38787;SDS011;24536;45.488;12.238;2022-12-18T09:40:23;8.93;;;5.00;;
38787;SDS011;24536;45.488;12.238;2022-12-18T09:42:56;7.65;;;5.30;;
38787;SDS011;24536;45.488;12.238;2022-12-18T09:45:24;8.02;;;5.70;;
38787;SDS011;24536;45.488;12.238;2022-12-18T09:47:51;7.05;;;5.10;;
38787;SDS011;24536;45.488;12.238;2022-12-18T09:52:47;9.82;;;6.03;;
38787;SDS011;24536;45.488;12.238;2022-12-18T09:57:56;7.72;;;5.00;;
38787;SDS011;24536;45.488;12.238;2022-12-18T10:00:42;8.07;;;5.57;;
38787;SDS011;24536;45.488;12.238;2022-12-18T10:03:09;8.55;;;5.18;;
38787;SDS011;24536;45.488;12.238;2022-12-18T10:05:40;7.85;;;5.32;;
38787;SDS011;24536;45.488;12.238;2022-12-18T10:08:24;8.40;;;5.13;;
38787;SDS011;24536;45.488;12.238;2022-12-18T10:14:04;8.15;;;5.75;;
38787;SDS011;24536;45.488;12.238;2022-12-18T10:17:22;6.88;;;5.10;;
38787;SDS011;24536;45.488;12.238;2022-12-18T10:22:25;8.93;;;5.30;;
38787;SDS011;24536;45.488;12.238;2022-12-18T10:27:43;7.63;;;5.35;;
38787;SDS011;24536;45.488;12.238;2022-12-18T10:30:13;8.98;;;5.07;;
38787;SDS011;24536;45.488;12.238;2022-12-18T10:32:43;7.95;;;5.47;;
38787;SDS011;24536;45.488;12.238;2022-12-18T10:35:17;6.93;;;5.10;;
38787;SDS011;24536;45.488;12.238;2022-12-18T10:38:05;7.57;;;4.78;;
38787;SDS011;24536;45.488;12.238;2022-12-18T10:40:32;6.65;;;4.97;;
38787;SDS011;24536;45.488;12.238;2022-12-18T10:43:12;7.90;;;5.13;;
38787;SDS011;24536;45.488;12.238;2022-12-18T10:45:40;7.63;;;5.57;;
38787;SDS011;24536;45.488;12.238;2022-12-18T10:48:19;7.90;;;6.03;;
38787;SDS011;24536;45.488;12.238;2022-12-18T10:50:47;6.50;;;5.10;;
38787;SDS011;24536;45.488;12.238;2022-12-18T10:53:25;7.53;;;5.68;;
38787;SDS011;24536;45.488;12.238;2022-12-18T10:55:53;7.00;;;5.10;;
38787;SDS011;24536;45.488;12.238;2022-12-18T11:03:39;8.25;;;5.32;;
38787;SDS011;24536;45.488;12.238;2022-12-18T11:08:35;8.80;;;5.18;;
38787;SDS011;24536;45.488;12.238;2022-12-18T11:11:02;8.43;;;5.90;;
38787;SDS011;24536;45.488;12.238;2022-12-18T11:13:29;7.38;;;5.45;;
38787;SDS011;24536;45.488;12.238;2022-12-18T11:15:57;11.55;;;7.20;;
38787;SDS011;24536;45.488;12.238;2022-12-18T11:18:29;9.15;;;6.13;;
38787;SDS011;24536;45.488;12.238;2022-12-18T11:21:05;9.23;;;6.72;;
38787;SDS011;24536;45.488;12.238;2022-12-18T11:23:32;7.28;;;5.30;;
38787;SDS011;24536;45.488;12.238;2022-12-18T11:26:01;10.90;;;7.05;;
38787;SDS011;24536;45.488;12.238;2022-12-18T11:28:33;9.20;;;6.35;;
38787;SDS011;24536;45.488;12.238;2022-12-18T11:33:38;7.47;;;5.50;;
38787;SDS011;24536;45.488;12.238;2022-12-18T11:36:06;7.97;;;6.07;;
38787;SDS011;24536;45.488;12.238;2022-12-18T11:38:37;8.50;;;5.85;;
38787;SDS011;24536;45.488;12.238;2022-12-18T11:43:41;8.77;;;6.47;;
38787;SDS011;24536;45.488;12.238;2022-12-18T11:46:16;8.27;;;6.57;;
38787;SDS011;24536;45.488;12.238;2022-12-18T11:49:22;7.97;;;6.75;;
38787;SDS011;24536;45.488;12.238;2022-12-18T11:51:53;8.55;;;6.60;;
38787;SDS011;24536;45.488;12.238;2022-12-18T11:54:26;8.77;;;7.05;;
38787;SDS011;24536;45.488;12.238;2022-12-18T11:56:58;10.02;;;7.10;;
38787;SDS011;24536;45.488;12.238;2022-12-18T12:02:22;8.35;;;6.95;;
38787;SDS011;24536;45.488;12.238;2022-12-18T12:07:51;9.98;;;7.38;;
38787;SDS011;24536;45.488;12.238;2022-12-18T12:10:59;8.65;;;7.00;;
38787;SDS011;24536;45.488;12.238;2022-12-18T12:16:15;8.57;;;7.38;;
38787;SDS011;24536;45.488;12.238;2022-12-18T12:21:33;8.98;;;7.20;;
38787;SDS011;24536;45.488;12.238;2022-12-18T12:26:49;15.75;;;7.55;;
38787;SDS011;24536;45.488;12.238;2022-12-18T12:34:31;9.13;;;6.82;;
38787;SDS011;24536;45.488;12.238;2022-12-18T12:40:13;8.18;;;6.65;;
38787;SDS011;24536;45.488;12.238;2022-12-18T12:42:46;7.75;;;6.88;;
38787;SDS011;24536;45.488;12.238;2022-12-18T12:45:38;8.00;;;7.20;;
38787;SDS011;24536;45.488;12.238;2022-12-18T12:48:27;8.85;;;7.38;;
38787;SDS011;24536;45.488;12.238;2022-12-18T12:50:57;9.52;;;7.25;;
38787;SDS011;24536;45.488;12.238;2022-12-18T12:53:29;8.65;;;7.18;;
38787;SDS011;24536;45.488;12.238;2022-12-18T12:56:00;9.38;;;7.57;;
38787;SDS011;24536;45.488;12.238;2022-12-18T13:01:05;7.97;;;6.05;;
38787;SDS011;24536;45.488;12.238;2022-12-18T13:06:11;8.57;;;6.68;;
38787;SDS011;24536;45.488;12.238;2022-12-18T13:08:54;8.45;;;6.75;;
38787;SDS011;24536;45.488;12.238;2022-12-18T13:11:38;7.38;;;6.13;;
38787;SDS011;24536;45.488;12.238;2022-12-18T13:14:26;7.00;;;6.13;;
38787;SDS011;24536;45.488;12.238;2022-12-18T13:20:02;6.18;;;5.50;;
38787;SDS011;24536;45.488;12.238;2022-12-18T13:22:45;6.72;;;5.75;;
38787;SDS011;24536;45.488;12.238;2022-12-18T13:25:32;7.53;;;5.68;;
38787;SDS011;24536;45.488;12.238;2022-12-18T13:28:02;6.05;;;5.05;;
38787;SDS011;24536;45.488;12.238;2022-12-18T13:41:03;6.70;;;5.18;;
38787;SDS011;24536;45.488;12.238;2022-12-18T13:43:31;7.22;;;5.78;;
38787;SDS011;24536;45.488;12.238;2022-12-18T13:46:05;7.72;;;5.60;;
38787;SDS011;24536;45.488;12.238;2022-12-18T13:51:39;6.75;;;5.20;;
38787;SDS011;24536;45.488;12.238;2022-12-18T13:56:59;8.30;;;5.05;;
38787;SDS011;24536;45.488;12.238;2022-12-18T13:59:26;7.80;;;5.80;;
38787;SDS011;24536;45.488;12.238;2022-12-18T14:02:11;5.80;;;5.07;;
38787;SDS011;24536;45.488;12.238;2022-12-18T14:04:45;7.32;;;5.50;;
38787;SDS011;24536;45.488;12.238;2022-12-18T14:07:12;8.43;;;5.28;;
38787;SDS011;24536;45.488;12.238;2022-12-18T14:09:42;7.10;;;5.05;;
38787;SDS011;24536;45.488;12.238;2022-12-18T14:20:55;7.63;;;5.43;;
38787;SDS011;24536;45.488;12.238;2022-12-18T14:25:56;8.65;;;6.18;;
38787;SDS011;24536;45.488;12.238;2022-12-18T14:28:22;7.25;;;5.25;;
38787;SDS011;24536;45.488;12.238;2022-12-18T14:30:48;6.85;;;5.25;;
38787;SDS011;24536;45.488;12.238;2022-12-18T14:33:15;7.15;;;4.95;;
38787;SDS011;24536;45.488;12.238;2022-12-18T14:35:43;7.78;;;5.05;;
38787;SDS011;24536;45.488;12.238;2022-12-18T14:38:26;8.70;;;4.90;;
38787;SDS011;24536;45.488;12.238;2022-12-18T14:40:59;6.70;;;5.10;;
38787;SDS011;24536;45.488;12.238;2022-12-18T14:43:28;7.60;;;5.20;;
38787;SDS011;24536;45.488;12.238;2022-12-18T14:45:56;7.05;;;4.93;;
38787;SDS011;24536;45.488;12.238;2022-12-18T14:51:04;7.70;;;5.32;;
38787;SDS011;24536;45.488;12.238;2022-12-18T14:54:00;6.45;;;5.05;;
38787;SDS011;24536;45.488;12.238;2022-12-18T14:56:36;7.50;;;5.15;;
38787;SDS011;24536;45.488;12.238;2022-12-18T15:04:42;8.13;;;5.47;;
38787;SDS011;24536;45.488;12.238;2022-12-18T15:07:21;6.85;;;5.03;;
38787;SDS011;24536;45.488;12.238;2022-12-18T15:18:01;7.75;;;5.57;;
38787;SDS011;24536;45.488;12.238;2022-12-18T15:20:33;7.43;;;5.32;;
38787;SDS011;24536;45.488;12.238;2022-12-18T15:25:55;7.53;;;5.17;;
38787;SDS011;24536;45.488;12.238;2022-12-18T15:28:26;8.32;;;5.03;;
38787;SDS011;24536;45.488;12.238;2022-12-18T15:33:34;8.90;;;5.75;;
38787;SDS011;24536;45.488;12.238;2022-12-18T15:36:08;9.43;;;5.95;;
38787;SDS011;24536;45.488;12.238;2022-12-18T15:38:35;8.80;;;6.03;;
38787;SDS011;24536;45.488;12.238;2022-12-18T15:41:01;9.18;;;6.30;;
38787;SDS011;24536;45.488;12.238;2022-12-18T15:43:27;7.57;;;5.65;;
38787;SDS011;24536;45.488;12.238;2022-12-18T15:46:06;9.27;;;5.78;;
38787;SDS011;24536;45.488;12.238;2022-12-18T15:48:42;9.50;;;6.53;;
38787;SDS011;24536;45.488;12.238;2022-12-18T15:51:16;10.40;;;5.57;;
38787;SDS011;24536;45.488;12.238;2022-12-18T15:53:46;9.77;;;6.03;;
38787;SDS011;24536;45.488;12.238;2022-12-18T15:56:14;8.95;;;6.40;;
38787;SDS011;24536;45.488;12.238;2022-12-18T15:58:59;8.63;;;5.55;;
38787;SDS011;24536;45.488;12.238;2022-12-18T16:01:27;9.80;;;6.57;;
38787;SDS011;24536;45.488;12.238;2022-12-18T16:03:54;8.82;;;5.65;;
38787;SDS011;24536;45.488;12.238;2022-12-18T16:06:20;8.48;;;5.95;;
38787;SDS011;24536;45.488;12.238;2022-12-18T16:08:47;10.35;;;5.93;;
38787;SDS011;24536;45.488;12.238;2022-12-18T16:14:22;8.55;;;5.97;;
38787;SDS011;24536;45.488;12.238;2022-12-18T16:16:55;7.03;;;5.15;;
38787;SDS011;24536;45.488;12.238;2022-12-18T16:19:23;8.50;;;6.32;;
38787;SDS011;24536;45.488;12.238;2022-12-18T16:21:50;8.32;;;6.22;;
38787;SDS011;24536;45.488;12.238;2022-12-18T16:24:17;7.97;;;5.95;;
38787;SDS011;24536;45.488;12.238;2022-12-18T16:26:46;8.40;;;5.63;;
38787;SDS011;24536;45.488;12.238;2022-12-18T16:29:13;10.15;;;6.55;;
38787;SDS011;24536;45.488;12.238;2022-12-18T16:31:39;7.93;;;6.10;;
38787;SDS011;24536;45.488;12.238;2022-12-18T16:36:36;10.43;;;6.97;;
38787;SDS011;24536;45.488;12.238;2022-12-18T16:39:02;10.10;;;7.32;;
38787;SDS011;24536;45.488;12.238;2022-12-18T16:41:28;11.65;;;7.30;;
38787;SDS011;24536;45.488;12.238;2022-12-18T16:43:57;9.63;;;7.60;;
38787;SDS011;24536;45.488;12.238;2022-12-18T16:46:23;12.43;;;7.90;;
38787;SDS011;24536;45.488;12.238;2022-12-18T16:48:49;13.05;;;8.13;;
38787;SDS011;24536;45.488;12.238;2022-12-18T16:51:15;13.02;;;7.43;;
38787;SDS011;24536;45.488;12.238;2022-12-18T16:53:41;10.50;;;7.43;;
38787;SDS011;24536;45.488;12.238;2022-12-18T16:56:06;14.60;;;8.98;;
38787;SDS011;24536;45.488;12.238;2022-12-18T16:58:32;14.60;;;8.80;;
38787;SDS011;24536;45.488;12.238;2022-12-18T17:00:58;14.05;;;9.23;;
38787;SDS011;24536;45.488;12.238;2022-12-18T17:03:24;15.45;;;10.00;;
38787;SDS011;24536;45.488;12.238;2022-12-18T17:05:50;15.02;;;10.05;;
38787;SDS011;24536;45.488;12.238;2022-12-18T17:08:16;16.98;;;10.40;;
38787;SDS011;24536;45.488;12.238;2022-12-18T17:10:42;14.82;;;10.45;;
38787;SDS011;24536;45.488;12.238;2022-12-18T17:13:07;16.90;;;10.90;;
38787;SDS011;24536;45.488;12.238;2022-12-18T17:15:34;20.77;;;12.07;;
38787;SDS011;24536;45.488;12.238;2022-12-18T17:18:00;20.05;;;10.65;;
38787;SDS011;24536;45.488;12.238;2022-12-18T17:20:26;19.25;;;11.68;;
38787;SDS011;24536;45.488;12.238;2022-12-18T17:22:52;17.95;;;11.57;;